This is the latest recevied weather packets stored in our database for station/object N3FWE. If no packets are shown the sender has not sent any weather packets the latest 10 day(s).
| Time | Temp. | Humidity | Pressure | Rain* | Wind** | Luminosity | Snow |
|---|---|---|---|---|---|---|---|
| 1777921815 | 24.44° C | 36% | 1010 hPa | 0 mm | - | - | - |
| 1777921215 | 24.44° C | 35% | 1010.3 hPa | 0 mm | - | - | - |
| 1777920614 | 23.89° C | 37% | 1010.4 hPa | 0 mm | - | - | - |
| 1777920014 | 24.44° C | 35% | 1010.7 hPa | 0 mm | - | - | - |
| 1777919414 | 24.44° C | 36% | 1010.7 hPa | 0 mm | - | - | - |
| 1777918814 | 23.89° C | 37% | 1010.8 hPa | 0 mm | - | - | - |
| 1777918214 | 24.44° C | 35% | 1010.9 hPa | 0 mm | - | - | - |
| 1777917615 | 24.44° C | 37% | 1011.1 hPa | 0 mm | - | - | - |
| 1777917014 | 24.44° C | 36% | 1011.4 hPa | 0 mm | - | - | - |
| 1777916414 | 23.89° C | 38% | 1011.5 hPa | 0 mm | - | - | - |
| 1777915814 | 23.33° C | 37% | 1011.6 hPa | 0 mm | - | - | - |
| 1777915214 | 23.33° C | 38% | 1011.7 hPa | 0 mm | - | - | - |
| 1777914614 | 23.33° C | 37% | 1011.8 hPa | 0 mm | - | - | - |
| 1777914014 | 22.78° C | 39% | 1011.8 hPa | 0 mm | - | - | - |
| 1777913414 | 22.22° C | 38% | 1012 hPa | 0 mm | - | - | - |
| 1777912814 | 22.22° C | 39% | 1012.2 hPa | 0 mm | - | - | - |
| 1777912214 | 22.22° C | 38% | 1012.4 hPa | 0 mm | - | - | - |
| 1777911614 | 21.67° C | 39% | 1012.5 hPa | 0 mm | - | - | - |
| 1777911014 | 21.67° C | 41% | 1012.7 hPa | 0 mm | - | - | - |
| 1777910414 | 21.67° C | 38% | 1012.9 hPa | 0 mm | - | - | - |
| 1777909814 | 21.11° C | 40% | 1013.1 hPa | 0 mm | - | - | - |
| 1777909214 | 20.56° C | 41% | 1013.2 hPa | 0 mm | - | - | - |
| 1777908614 | 20.56° C | 39% | 1013.4 hPa | 0 mm | - | - | - |
| 1777908014 | 20.56° C | 40% | 1013.5 hPa | 0 mm | - | - | - |
| 1777907414 | 20° C | 43% | 1013.5 hPa | 0 mm | - | - | - |
* Rain latest hour (hover to see other rain measurements)
** Current wind speed in m/s (hover to see current wind gust speed)